createdAt,value
2022-12-23T00:16:39.476Z,97.38
2022-12-23T00:46:39.536Z,97.63
2022-12-23T01:16:39.497Z,97.28
2022-12-23T01:46:39.441Z,97.57
2022-12-23T02:16:39.508Z,97.43
2022-12-23T02:46:39.495Z,97.44
2022-12-23T03:16:39.496Z,98.08
2022-12-23T03:46:39.483Z,98.07
2022-12-23T04:16:39.518Z,98.31
2022-12-23T04:46:39.543Z,98.15
2022-12-23T05:16:39.523Z,98.43
2022-12-23T05:46:39.550Z,98.33
2022-12-23T06:16:39.523Z,98.43
2022-12-23T06:46:39.485Z,98.71
2022-12-23T07:16:39.495Z,98.58
2022-12-23T07:46:39.536Z,98.94
2022-12-23T08:16:43.632Z,98.76
2022-12-23T08:46:39.508Z,98.69
2022-12-23T09:16:39.526Z,98.91
2022-12-23T09:46:39.534Z,98.79
2022-12-23T10:16:39.529Z,98.46
2022-12-23T10:46:39.548Z,99.17
2022-12-23T11:16:39.571Z,99.06
2022-12-23T11:46:39.515Z,98.69
2022-12-23T12:16:39.612Z,98.93
2022-12-23T12:46:39.504Z,98.76
2022-12-23T13:16:39.566Z,98.76
2022-12-23T13:46:39.591Z,99.01
2022-12-23T14:16:39.531Z,99.11
2022-12-23T14:46:39.588Z,99.34
2022-12-23T15:16:39.739Z,99.4
2022-12-23T15:46:39.655Z,99.57
2022-12-23T16:16:39.742Z,99.92
2022-12-23T16:46:39.566Z,99.99
2022-12-23T17:16:39.676Z,100
2022-12-23T17:46:39.579Z,100
2022-12-23T18:16:39.618Z,100
2022-12-23T18:46:39.627Z,100
2022-12-23T19:16:39.575Z,100
2022-12-23T19:46:39.676Z,100
2022-12-23T20:16:39.666Z,100
2022-12-23T20:46:39.670Z,100
2022-12-23T21:16:39.670Z,100
2022-12-23T21:46:39.657Z,100
2022-12-23T22:16:39.743Z,100
2022-12-23T22:46:39.623Z,99.92
2022-12-23T23:16:39.732Z,99.95
2022-12-23T23:46:39.634Z,100
